createdAt,value
2018-02-16T00:01:08.251Z,98167.46
2018-02-16T00:03:36.507Z,98163.09
2018-02-16T00:06:04.776Z,98171.09
2018-02-16T00:08:33.040Z,98167.05
2018-02-16T00:11:01.343Z,98182.77
2018-02-16T00:13:29.627Z,98185.70
2018-02-16T00:15:57.887Z,98201.55
2018-02-16T00:18:26.948Z,98194.83
2018-02-16T00:20:55.210Z,98196.05
2018-02-16T00:23:23.487Z,98199.73
2018-02-16T00:25:51.750Z,98191.24
2018-02-16T00:28:20.026Z,98191.94
2018-02-16T00:30:48.302Z,98194.48
2018-02-16T00:33:17.313Z,98203.53
2018-02-16T00:35:45.654Z,98203.22
2018-02-16T00:38:13.941Z,98197.44
2018-02-16T00:40:42.267Z,98189.03
2018-02-16T00:43:11.480Z,98181.53
2018-02-16T00:45:39.762Z,98181.44
2018-02-16T00:48:08.040Z,98185.30
2018-02-16T00:50:36.327Z,98177.20
2018-02-16T00:53:04.595Z,98176.89
2018-02-16T00:55:33.634Z,98181.56
2018-02-16T00:58:01.939Z,98181.58
2018-02-16T01:00:31.011Z,98183.90
2018-02-16T01:02:59.367Z,98193.98
2018-02-16T01:05:27.620Z,98201.77
2018-02-16T01:07:56.663Z,98206.85
2018-02-16T01:10:24.936Z,98201.77
2018-02-16T01:12:53.212Z,98203.18
2018-02-16T01:15:22.235Z,98200.98
2018-02-16T01:17:50.515Z,98205.35
2018-02-16T01:20:19.522Z,98200.98
2018-02-16T01:22:48.569Z,98200.89
2018-02-16T01:25:16.833Z,98200.08
2018-02-16T01:27:45.206Z,98204.34
2018-02-16T01:30:14.256Z,98214.18
2018-02-16T01:32:42.694Z,98212.05
2018-02-16T01:35:11.153Z,98215.63
2018-02-16T01:37:39.415Z,98224.86
2018-02-16T01:40:07.677Z,98238.66
2018-02-16T01:42:35.990Z,98241.80
2018-02-16T01:45:04.368Z,98234.83
2018-02-16T01:47:32.633Z,98235.14
2018-02-16T01:50:06.636Z,98250.47
2018-02-16T01:52:34.909Z,98251.57
2018-02-16T01:55:03.168Z,98248.75
2018-02-16T01:57:31.490Z,98243.28
2018-02-16T01:59:59.762Z,98246.83
2018-02-16T02:02:28.296Z,98252.70
2018-02-16T02:04:56.551Z,98246.42
2018-02-16T02:07:24.828Z,98253.93
2018-02-16T02:09:53.092Z,98256.44
2018-02-16T02:12:22.352Z,98258.48
2018-02-16T02:14:50.609Z,98270.27
2018-02-16T02:17:18.868Z,98265.80
2018-02-16T02:19:47.136Z,98264.36
2018-02-16T02:22:15.405Z,98262.34
2018-02-16T02:24:43.758Z,98272.18
2018-02-16T02:27:12.128Z,98274.00
2018-02-16T02:29:41.233Z,98275.12
2018-02-16T02:32:10.261Z,98270.95
2018-02-16T02:34:38.563Z,98271.45
2018-02-16T02:37:06.851Z,98276.82
2018-02-16T02:39:35.122Z,98276.42
2018-02-16T02:42:04.147Z,98265.86
2018-02-16T02:44:32.513Z,98255.03
2018-02-16T02:47:01.527Z,98275.12
2018-02-16T02:49:30.944Z,98271.27
2018-02-16T02:51:59.289Z,98270.95
2018-02-16T02:54:27.561Z,98274.59
2018-02-16T02:56:55.816Z,98281.09
2018-02-16T02:59:24.106Z,98274.81
2018-02-16T03:01:53.125Z,98279.37
2018-02-16T03:04:21.383Z,98276.45
2018-02-16T03:06:50.395Z,98280.73
2018-02-16T03:09:19.419Z,98283.56
2018-02-16T03:11:47.686Z,98290.56
2018-02-16T03:14:16.748Z,98299.61
2018-02-16T03:16:45.061Z,98291.97
2018-02-16T03:19:13.415Z,98299.70
2018-02-16T03:21:41.743Z,98312.77
2018-02-16T03:24:11.213Z,98310.04
2018-02-16T03:26:39.476Z,98310.34
2018-02-16T03:29:08.503Z,98322.55
2018-02-16T03:31:36.769Z,98328.65
2018-02-16T03:34:05.812Z,98322.05
2018-02-16T03:36:34.053Z,98327.52
2018-02-16T03:39:02.296Z,98328.73
2018-02-16T03:41:30.583Z,98344.07
2018-02-16T03:43:58.855Z,98343.48
2018-02-16T03:46:27.119Z,98336.17
2018-02-16T03:48:56.126Z,98339.72
2018-02-16T03:51:25.161Z,98341.53
2018-02-16T03:53:53.413Z,98346.13
2018-02-16T03:56:21.673Z,98350.05
2018-02-16T03:58:49.917Z,98345.98
2018-02-16T04:01:18.171Z,98355.22
2018-02-16T04:03:46.457Z,98366.38
2018-02-16T04:06:14.746Z,98356.14
2018-02-16T04:08:43.052Z,98360.19
2018-02-16T04:11:12.152Z,98357.40
2018-02-16T04:13:40.431Z,98368.98
2018-02-16T04:16:08.703Z,98374.09
2018-02-16T04:18:36.953Z,98368.59
2018-02-16T04:21:05.210Z,98379.64
2018-02-16T04:23:35.058Z,98380.88
2018-02-16T04:26:03.326Z,98395.30
2018-02-16T04:28:32.324Z,98389.77
2018-02-16T04:31:00.615Z,98394.00
2018-02-16T04:33:29.657Z,98389.23
2018-02-16T04:35:57.930Z,98391.10
2018-02-16T04:38:26.942Z,98391.27
2018-02-16T04:40:56.348Z,98393.58
2018-02-16T04:43:25.354Z,98397.03
2018-02-16T04:45:54.388Z,98405.45
2018-02-16T04:48:22.626Z,98420.72
2018-02-16T04:50:50.887Z,98410.24
2018-02-16T04:53:19.160Z,98413.04
2018-02-16T04:55:47.418Z,98413.17
2018-02-16T04:58:15.726Z,98418.06
2018-02-16T05:00:44.052Z,98427.53
2018-02-16T05:03:12.326Z,98434.64
2018-02-16T05:05:40.634Z,98434.69
2018-02-16T05:08:08.883Z,98448.06
2018-02-16T05:10:37.139Z,98454.92
2018-02-16T05:13:06.179Z,98456.40
2018-02-16T05:15:34.423Z,98463.48
2018-02-16T05:18:02.772Z,98470.12
2018-02-16T05:20:31.142Z,98467.83
2018-02-16T05:23:00.381Z,98465.01
2018-02-16T05:25:28.900Z,98471.89
2018-02-16T05:27:57.459Z,98473.98
2018-02-16T05:30:25.815Z,98478.38
2018-02-16T05:32:54.950Z,98479.85
2018-02-16T05:35:23.198Z,98485.86
2018-02-16T05:37:51.594Z,98491.31
2018-02-16T05:40:20.082Z,98489.91
2018-02-16T05:42:48.612Z,98483.74
2018-02-16T05:45:17.669Z,98482.72
2018-02-16T05:47:46.244Z,98489.00
2018-02-16T05:50:14.641Z,98503.03
2018-02-16T05:52:43.787Z,98491.38
2018-02-16T05:55:12.072Z,98502.70
2018-02-16T05:57:40.874Z,98497.14
2018-02-16T06:00:09.978Z,98500.66
2018-02-16T06:02:38.301Z,98507.01
2018-02-16T06:05:07.371Z,98508.68
2018-02-16T06:07:35.685Z,98512.48
2018-02-16T06:10:03.941Z,98514.58
2018-02-16T06:12:32.442Z,98534.20
2018-02-16T06:15:00.755Z,98528.70
2018-02-16T06:17:29.074Z,98519.50
2018-02-16T06:19:57.643Z,98531.70
2018-02-16T06:22:26.679Z,98536.86
2018-02-16T06:24:55.187Z,98542.25
2018-02-16T06:27:23.565Z,98539.99
2018-02-16T06:29:51.866Z,98546.64
2018-02-16T06:32:20.683Z,98554.84
2018-02-16T06:34:49.142Z,98557.92
2018-02-16T06:37:18.478Z,98555.29
2018-02-16T06:39:46.752Z,98570.08
2018-02-16T06:42:16.153Z,98579.39
2018-02-16T06:44:45.254Z,98577.34
2018-02-16T06:47:13.631Z,98583.31
2018-02-16T06:49:41.929Z,98589.17
2018-02-16T06:52:11.090Z,98582.76
2018-02-16T06:54:39.570Z,98583.95
2018-02-16T06:57:08.091Z,98594.06
2018-02-16T06:59:36.614Z,98597.70
2018-02-16T07:02:04.864Z,98598.31
2018-02-16T07:04:33.184Z,98603.17
2018-02-16T07:07:01.462Z,98605.58
2018-02-16T07:09:29.715Z,98600.33
2018-02-16T07:11:57.983Z,98604.93
2018-02-16T07:14:26.247Z,98616.84
2018-02-16T07:16:54.503Z,98622.77
2018-02-16T07:19:22.783Z,98616.05
2018-02-16T07:21:51.028Z,98619.27
2018-02-16T07:24:20.099Z,98614.75
2018-02-16T07:26:48.352Z,98612.14
2018-02-16T07:29:16.647Z,98625.67
2018-02-16T07:31:44.947Z,98619.40
2018-02-16T07:36:47.574Z,98631.08
2018-02-16T07:39:16.650Z,98635.70
2018-02-16T07:41:44.938Z,98647.44
2018-02-16T07:44:14.015Z,98643.68
2018-02-16T07:46:42.292Z,98655.99
2018-02-16T07:49:10.623Z,98662.27
2018-02-16T07:51:38.904Z,98664.31
2018-02-16T07:54:07.911Z,98672.58
2018-02-16T07:56:37.003Z,98673.79
2018-02-16T07:59:05.251Z,98670.67
2018-02-16T08:01:33.525Z,98677.94
2018-02-16T08:04:01.791Z,98675.97
2018-02-16T08:06:30.134Z,98676.91
2018-02-16T08:08:58.391Z,98681.44
2018-02-16T08:11:26.684Z,98678.27
2018-02-16T08:13:54.932Z,98688.86
2018-02-16T08:16:23.206Z,98689.09
2018-02-16T08:18:51.467Z,98693.63
2018-02-16T08:21:19.742Z,98694.56
2018-02-16T08:23:47.985Z,98697.14
2018-02-16T08:26:16.305Z,98703.16
2018-02-16T08:28:45.357Z,98709.32
2018-02-16T08:31:13.639Z,98705.95
2018-02-16T08:33:42.688Z,98708.72
2018-02-16T08:36:11.739Z,98716.38
2018-02-16T08:38:40.006Z,98712.89
2018-02-16T08:41:09.044Z,98711.56
2018-02-16T08:43:37.443Z,98725.89
2018-02-16T08:46:06.012Z,98727.74
2018-02-16T08:48:34.381Z,98724.86
2018-02-16T08:51:02.823Z,98718.43
2018-02-16T08:53:31.155Z,98727.74
2018-02-16T08:56:00.181Z,98723.21
2018-02-16T08:58:28.700Z,98731.42
2018-02-16T09:00:56.989Z,98733.23
2018-02-16T09:03:25.248Z,98733.49
2018-02-16T09:05:53.624Z,98732.91
2018-02-16T09:08:22.896Z,98734.24
2018-02-16T09:10:51.420Z,98739.84
2018-02-16T09:13:20.772Z,98741.23
2018-02-16T09:15:49.322Z,98744.93
2018-02-16T09:18:17.795Z,98737.77
2018-02-16T09:20:47.140Z,98739.49
2018-02-16T09:23:17.085Z,98743.20
2018-02-16T09:25:47.303Z,98739.22
2018-02-16T09:28:16.393Z,98747.72
2018-02-16T09:30:44.931Z,98756.08
2018-02-16T09:33:13.371Z,98756.92
2018-02-16T09:35:42.985Z,98759.63
2018-02-16T09:38:11.580Z,98760.95
2018-02-16T09:40:40.683Z,98767.34
2018-02-16T09:43:09.129Z,98769.16
2018-02-16T09:45:38.338Z,98765.36
2018-02-16T09:48:06.865Z,98767.25
2018-02-16T09:50:35.542Z,98759.80
2018-02-16T09:53:04.004Z,98755.66
2018-02-16T09:55:32.345Z,98761.47
2018-02-16T09:58:01.246Z,98778.88
2018-02-16T10:00:30.805Z,98771.42
2018-02-16T10:02:59.477Z,98776.55
2018-02-16T10:05:29.313Z,98779.50
2018-02-16T10:07:58.477Z,98781.03
2018-02-16T10:10:27.246Z,98780.82
2018-02-16T10:12:55.910Z,98775.78
2018-02-16T10:15:24.970Z,98779.38
2018-02-16T10:17:54.455Z,98772.61
2018-02-16T10:20:23.280Z,98780.15
2018-02-16T10:22:51.891Z,98795.30
2018-02-16T10:25:20.175Z,98789.64
2018-02-16T10:27:48.605Z,98790.34
2018-02-16T10:30:17.638Z,98792.45
2018-02-16T10:32:46.138Z,98799.52
2018-02-16T10:35:14.449Z,98793.66
2018-02-16T10:37:42.927Z,98801.44
2018-02-16T10:40:13.521Z,98799.50
2018-02-16T10:42:41.822Z,98801.14
2018-02-16T10:45:10.958Z,98802.44
2018-02-16T10:47:39.360Z,98806.53
2018-02-16T10:50:07.812Z,98795.82
2018-02-16T10:52:37.170Z,98797.67
2018-02-16T10:55:05.525Z,98799.29
2018-02-16T10:57:33.909Z,98793.89
2018-02-16T11:00:03.859Z,98799.62
2018-02-16T11:02:38.714Z,98806.81
2018-02-16T11:05:12.775Z,98803.47
2018-02-16T11:07:47.423Z,98800.91
2018-02-16T11:10:15.800Z,98799.30
2018-02-16T11:12:44.673Z,98806.23
2018-02-16T11:15:13.200Z,98810.30
2018-02-16T11:17:41.538Z,98805.83
2018-02-16T11:20:10.653Z,98808.27
2018-02-16T11:22:39.768Z,98814.22
2018-02-16T11:25:09.024Z,98810.42
2018-02-16T11:27:37.346Z,98807.27
2018-02-16T11:30:06.560Z,98807.66
2018-02-16T11:32:35.817Z,98809.80
2018-02-16T11:35:04.271Z,98813.17
2018-02-16T11:37:33.685Z,98810.13
2018-02-16T11:40:03.885Z,98803.59
2018-02-16T11:42:34.162Z,98804.59
2018-02-16T11:45:03.259Z,98810.42
2018-02-16T11:47:36.563Z,98813.98
2018-02-16T11:50:05.217Z,98800.95
2018-02-16T11:52:33.899Z,98800.09
2018-02-16T11:55:02.322Z,98801.61
2018-02-16T11:57:30.641Z,98796.27
2018-02-16T11:59:59.728Z,98797.16
2018-02-16T12:02:28.050Z,98795.75
2018-02-16T12:04:57.392Z,98796.77
2018-02-16T12:07:25.759Z,98791.50
2018-02-16T12:09:54.289Z,98785.70
2018-02-16T12:12:22.590Z,98791.89
2018-02-16T12:14:50.927Z,98784.39
2018-02-16T12:17:19.368Z,98793.29
2018-02-16T12:19:47.945Z,98777.48
2018-02-16T12:22:16.410Z,98782.33
2018-02-16T12:24:45.607Z,98788.17
2018-02-16T12:27:14.708Z,98786.71
2018-02-16T12:29:43.707Z,98791.47
2018-02-16T12:32:12.142Z,98793.97
2018-02-16T12:34:40.497Z,98785.09
2018-02-16T12:37:08.850Z,98796.02
2018-02-16T12:39:37.335Z,98793.94
2018-02-16T12:42:05.737Z,98794.50
2018-02-16T12:44:34.277Z,98786.14
2018-02-16T12:47:02.736Z,98794.56
2018-02-16T12:49:34.389Z,98791.06
2018-02-16T12:52:06.164Z,98787.39
2018-02-16T12:54:34.955Z,98789.84
2018-02-16T12:57:03.557Z,98784.92
2018-02-16T12:59:32.934Z,98781.96
2018-02-16T13:02:01.286Z,98783.37
2018-02-16T13:04:30.426Z,98780.45
2018-02-16T13:06:58.948Z,98770.20
2018-02-16T13:09:27.367Z,98769.84
2018-02-16T13:11:55.795Z,98770.14
2018-02-16T13:14:24.096Z,98765.98
2018-02-16T13:16:53.222Z,98773.46
2018-02-16T13:19:21.524Z,98767.83
2018-02-16T13:21:49.896Z,98762.75
2018-02-16T13:24:18.214Z,98758.30
2018-02-16T13:26:46.495Z,98764.06
2018-02-16T13:29:14.792Z,98759.83
2018-02-16T13:31:43.165Z,98762.88
2018-02-16T13:34:11.465Z,98757.13
2018-02-16T13:36:40.030Z,98757.59
2018-02-16T13:39:09.126Z,98755.73
2018-02-16T13:41:38.272Z,98753.45
2018-02-16T13:44:06.596Z,98752.53
2018-02-16T13:46:34.928Z,98758.18
2018-02-16T13:49:03.963Z,98748.03
2018-02-16T13:51:32.256Z,98747.02
2018-02-16T13:54:00.649Z,98743.69
2018-02-16T13:56:29.300Z,98752.42
2018-02-16T13:58:57.572Z,98740.86
2018-02-16T14:01:27.088Z,98744.43
2018-02-16T14:03:56.541Z,98760.61
2018-02-16T14:06:26.181Z,98750.31
2018-02-16T14:08:54.748Z,98742.47
2018-02-16T14:11:23.119Z,98746.98
2018-02-16T14:13:51.404Z,98746.19
2018-02-16T14:16:19.958Z,98744.96
2018-02-16T14:18:48.434Z,98754.70
2018-02-16T14:21:16.787Z,98748.09
2018-02-16T14:23:45.213Z,98750.19
2018-02-16T14:26:14.245Z,98757.01
2018-02-16T14:28:42.658Z,98756.25
2018-02-16T14:31:11.152Z,98758.98
2018-02-16T14:33:39.546Z,98755.91
2018-02-16T14:36:07.918Z,98752.11
2018-02-16T14:38:36.242Z,98751.37
2018-02-16T14:41:04.624Z,98744.00
2018-02-16T14:43:33.202Z,98745.55
2018-02-16T14:46:01.673Z,98746.98
2018-02-16T14:48:30.466Z,98748.48
2018-02-16T14:50:59.533Z,98742.36
2018-02-16T14:53:27.864Z,98747.97
2018-02-16T14:55:56.160Z,98737.34
2018-02-16T14:58:26.255Z,98748.26
2018-02-16T15:00:54.838Z,98743.36
2018-02-16T15:03:23.463Z,98727.97
2018-02-16T15:05:52.756Z,98732.59
2018-02-16T15:08:21.111Z,98737.69
2018-02-16T15:10:50.781Z,98734.02
2018-02-16T15:13:19.101Z,98740.23
2018-02-16T15:15:47.570Z,98737.81
2018-02-16T15:18:16.036Z,98727.32
2018-02-16T15:20:44.404Z,98729.55
2018-02-16T15:23:12.708Z,98737.61
2018-02-16T15:25:41.571Z,98733.63
2018-02-16T15:28:09.892Z,98731.19
2018-02-16T15:30:38.209Z,98729.95
2018-02-16T15:33:06.714Z,98733.53
2018-02-16T15:35:35.054Z,98728.73
2018-02-16T15:38:03.379Z,98726.91
2018-02-16T15:40:31.759Z,98724.75
2018-02-16T15:43:00.074Z,98740.43
2018-02-16T15:45:29.368Z,98747.97
2018-02-16T15:47:58.458Z,98740.22
2018-02-16T15:50:26.767Z,98739.11
2018-02-16T15:52:55.304Z,98745.61
2018-02-16T15:55:23.769Z,98754.75
2018-02-16T15:57:52.545Z,98752.55
2018-02-16T16:00:21.639Z,98755.78
2018-02-16T16:02:51.114Z,98751.30
2018-02-16T16:05:20.320Z,98752.33
2018-02-16T16:07:49.885Z,98750.31
2018-02-16T16:10:18.960Z,98747.05
2018-02-16T16:12:47.726Z,98744.07
2018-02-16T16:15:16.310Z,98745.44
2018-02-16T16:17:45.900Z,98755.12
2018-02-16T16:20:14.846Z,98753.75
2018-02-16T16:22:44.215Z,98745.41
2018-02-16T16:25:13.184Z,98747.55
2018-02-16T16:27:42.932Z,98744.77
2018-02-16T16:30:11.469Z,98751.42
2018-02-16T16:32:40.053Z,98746.82
2018-02-16T16:35:08.802Z,98750.69
2018-02-16T16:37:38.293Z,98752.08
2018-02-16T16:40:06.974Z,98754.23
2018-02-16T16:42:35.792Z,98749.05
2018-02-16T16:45:04.873Z,98745.11
2018-02-16T16:47:33.649Z,98753.34
2018-02-16T16:50:02.364Z,98752.33
2018-02-16T16:52:31.469Z,98750.33
2018-02-16T16:54:59.816Z,98746.27
2018-02-16T16:57:28.203Z,98753.16
2018-02-16T16:59:57.531Z,98749.45
2018-02-16T17:02:27.112Z,98756.33
2018-02-16T17:04:55.644Z,98758.56
2018-02-16T17:07:24.800Z,98768.99
2018-02-16T17:09:53.463Z,98775.33
2018-02-16T17:12:23.211Z,98775.28
2018-02-16T17:14:52.498Z,98777.97
2018-02-16T17:17:21.871Z,98786.44
2018-02-16T17:19:50.566Z,98786.28
2018-02-16T17:22:19.927Z,98786.72
2018-02-16T17:24:48.682Z,98789.08
2018-02-16T17:27:17.555Z,98790.41
2018-02-16T17:29:46.067Z,98789.83
2018-02-16T17:32:14.391Z,98792.23
2018-02-16T17:34:43.727Z,98791.28
2018-02-16T17:37:12.272Z,98786.48
2018-02-16T17:39:40.811Z,98787.58
2018-02-16T17:42:10.674Z,98789.77
2018-02-16T17:44:39.299Z,98791.47
2018-02-16T17:47:08.146Z,98790.38
2018-02-16T17:49:37.583Z,98781.00
2018-02-16T17:52:06.071Z,98787.91
2018-02-16T17:54:34.519Z,98796.95
2018-02-16T17:57:03.351Z,98798.98
2018-02-16T17:59:31.880Z,98792.19
2018-02-16T18:02:00.401Z,98787.39
2018-02-16T18:04:28.941Z,98792.44
2018-02-16T18:06:57.397Z,98790.77
2018-02-16T18:09:25.999Z,98793.16
2018-02-16T18:11:54.898Z,98779.95
2018-02-16T18:14:23.156Z,98778.98
2018-02-16T18:16:51.676Z,98774.14
2018-02-16T18:19:20.770Z,98763.19
2018-02-16T18:21:49.686Z,98772.51
2018-02-16T18:24:18.240Z,98770.26
2018-02-16T18:26:46.524Z,98767.63
2018-02-16T18:29:14.898Z,98762.97
2018-02-16T18:31:43.160Z,98769.78
2018-02-16T18:34:11.668Z,98763.66
2018-02-16T18:36:40.759Z,98756.56
2018-02-16T18:39:10.140Z,98758.28
2018-02-16T18:41:39.403Z,98751.16
2018-02-16T18:44:08.773Z,98755.44
2018-02-16T18:46:37.094Z,98753.16
2018-02-16T18:49:05.493Z,98752.99
2018-02-16T18:51:34.588Z,98758.08
2018-02-16T18:54:02.889Z,98743.52
2018-02-16T18:56:31.216Z,98746.95
2018-02-16T18:59:00.443Z,98739.95
2018-02-16T19:01:28.716Z,98747.92
2018-02-16T19:03:58.060Z,98742.98
2018-02-16T19:06:26.519Z,98739.97
2018-02-16T19:08:55.063Z,98738.28
2018-02-16T19:11:23.409Z,98741.89
2018-02-16T19:13:52.757Z,98746.20
2018-02-16T19:16:21.036Z,98744.27
2018-02-16T19:18:50.083Z,98741.53
2018-02-16T19:21:18.374Z,98738.57
2018-02-16T19:23:46.775Z,98729.16
2018-02-16T19:26:15.051Z,98738.88
2018-02-16T19:28:43.759Z,98734.89
2018-02-16T19:31:12.230Z,98726.66
2018-02-16T19:33:40.921Z,98724.34
2018-02-16T19:36:10.254Z,98728.84
2018-02-16T19:38:39.354Z,98723.73
2018-02-16T19:41:07.644Z,98723.66
2018-02-16T19:43:36.382Z,98726.59
2018-02-16T19:46:06.596Z,98734.06
2018-02-16T19:48:34.939Z,98727.13
2018-02-16T19:51:03.719Z,98725.36
2018-02-16T19:53:32.108Z,98722.41
2018-02-16T19:56:01.234Z,98716.48
2018-02-16T19:58:29.484Z,98713.60
2018-02-16T20:00:57.745Z,98711.48
2018-02-16T20:03:26.004Z,98706.98
2018-02-16T20:05:54.294Z,98696.10
2018-02-16T20:08:22.691Z,98708.03
2018-02-16T20:10:50.955Z,98697.55
2018-02-16T20:13:19.956Z,98698.48
2018-02-16T20:15:49.000Z,98698.41
2018-02-16T20:18:17.276Z,98689.84
2018-02-16T20:20:46.004Z,98680.83
2018-02-16T20:23:14.818Z,98683.09
2018-02-16T20:25:43.177Z,98681.06
2018-02-16T20:28:11.443Z,98669.25
2018-02-16T20:30:40.625Z,98677.05
2018-02-16T20:33:08.953Z,98689.61
2018-02-16T20:35:38.036Z,98688.53
2018-02-16T20:38:06.483Z,98683.86
2018-02-16T20:40:34.785Z,98687.64
2018-02-16T20:43:03.048Z,98687.73
2018-02-16T20:45:31.591Z,98681.91
2018-02-16T20:47:59.982Z,98683.37
2018-02-16T20:50:28.332Z,98675.52
2018-02-16T20:52:56.662Z,98685.18
2018-02-16T20:55:24.986Z,98673.88
2018-02-16T20:57:54.061Z,98673.88
2018-02-16T21:00:22.401Z,98672.89
2018-02-16T21:02:50.664Z,98681.09
2018-02-16T21:05:19.684Z,98678.81
2018-02-16T21:07:48.708Z,98687.39
2018-02-16T21:10:16.988Z,98686.19
2018-02-16T21:12:45.281Z,98687.16
2018-02-16T21:15:13.658Z,98681.23
2018-02-16T21:17:42.028Z,98686.82
2018-02-16T21:20:10.334Z,98692.95
2018-02-16T21:22:38.977Z,98700.64
2018-02-16T21:25:07.328Z,98699.97
2018-02-16T21:27:35.795Z,98702.14
2018-02-16T21:30:05.641Z,98710.37
2018-02-16T21:32:35.115Z,98699.91
2018-02-16T21:35:04.299Z,98702.23
2018-02-16T21:37:33.007Z,98711.26
2018-02-16T21:40:01.745Z,98718.97
2018-02-16T21:42:31.174Z,98703.20
2018-02-16T21:45:00.722Z,98708.45
2018-02-16T21:47:29.654Z,98700.43
2018-02-16T21:49:58.590Z,98711.80
2018-02-16T21:52:27.253Z,98712.70
2018-02-16T21:54:55.944Z,98708.44
2018-02-16T21:57:24.828Z,98714.44
2018-02-16T21:59:53.445Z,98706.37
2018-02-16T22:02:22.117Z,98698.03
2018-02-16T22:04:51.109Z,98698.23
2018-02-16T22:07:19.463Z,98694.05
2018-02-16T22:09:47.869Z,98701.23
2018-02-16T22:12:16.361Z,98699.41
2018-02-16T22:14:45.720Z,98697.36
2018-02-16T22:17:14.225Z,98702.99
2018-02-16T22:19:42.523Z,98692.91
2018-02-16T22:22:11.195Z,98695.95
2018-02-16T22:24:39.482Z,98703.86
2018-02-16T22:27:08.518Z,98705.25
2018-02-16T22:29:36.810Z,98706.42
2018-02-16T22:32:05.074Z,98708.06
2018-02-16T22:34:33.366Z,98711.92
2018-02-16T22:37:01.668Z,98715.13
2018-02-16T22:39:29.963Z,98707.41
2018-02-16T22:41:58.259Z,98706.13
2018-02-16T22:44:26.547Z,98699.73
2018-02-16T22:46:54.808Z,98699.48
2018-02-16T22:49:23.964Z,98705.87
2018-02-16T22:51:52.220Z,98702.27
2018-02-16T22:54:20.502Z,98695.16
2018-02-16T22:56:48.781Z,98691.84
2018-02-16T22:59:17.824Z,98690.29
2018-02-16T23:01:47.064Z,98683.92
2018-02-16T23:04:15.420Z,98688.11
2018-02-16T23:06:43.868Z,98684.33
2018-02-16T23:09:13.039Z,98684.28
2018-02-16T23:11:41.370Z,98682.06
2018-02-16T23:14:10.477Z,98678.48
2018-02-16T23:16:39.512Z,98671.33
2018-02-16T23:19:08.233Z,98662.70
2018-02-16T23:21:36.644Z,98664.56
2018-02-16T23:24:04.924Z,98655.23
2018-02-16T23:26:33.171Z,98652.83
2018-02-16T23:29:02.229Z,98660.23
2018-02-16T23:31:30.506Z,98642.58
2018-02-16T23:33:58.817Z,98646.43
2018-02-16T23:36:27.091Z,98641.63
2018-02-16T23:38:55.372Z,98636.37
2018-02-16T23:41:23.639Z,98641.14
2018-02-16T23:43:52.611Z,98644.81
2018-02-16T23:46:20.891Z,98643.01
2018-02-16T23:48:49.147Z,98633.87
2018-02-16T23:51:18.184Z,98640.62
2018-02-16T23:53:46.502Z,98636.39
2018-02-16T23:56:14.895Z,98646.59
2018-02-16T23:58:43.241Z,98649.48
